Aérodrome :
LOGIN :

S'inscrire | Disclaimer

   EN    FR    IT 

 










Légende :    VFR   VFR Marginal   IFR   IFR Intensif   IFR Très Intensif
Visi : 
Plafond : 
>= 8 km
>= 3000ft
5 à 8 km
1000 à 3000 ft
1500m à 5 km
500 à 1000 ft
800 à 1500m
200 à 500 ft
< 800m
< 200 ft
Symboles :   Orages  Brouillard  Fortes neiges  Fortes précipitations  Vent > 20 kt
SIGMETs :   Divers  Orages  Givrage  Turbulence  Onde Orograph.  Cendres Volcan.






- Altitude de l'aérodrome : 87 ft
- Code IATA : FSC


LFKF - Figari

DERNIER METAR :
  • 221000Z AUTO 06014KT 040V100 9999 FEW038 OVC078 15/10 Q1017 BECMG 05015G27KT

METARs EXPIRÉS :
  • 220930Z AUTO 06014KT 9999 BKN037 OVC080 16/10 Q1017 BECMG 05015G27KT
  • 220900Z AUTO 06015KT 030V110 9999 BKN032 BKN082 16/10 Q1017 BECMG 05015G27KT
  • 220830Z AUTO 06014KT 020V100 9999 SCT031 15/10 Q1016 BECMG 05015G27KT
  • 220800Z AUTO 06013KT 020V100 9999 FEW028 15/10 Q1016 TEMPO 06020G35KT SCT025TCU
  • 220730Z AUTO 06012KT 9999 FEW025 14/10 Q1016 TEMPO 06020G35KT SCT025TCU

TAF TAF LFKF
Valide du 22 à 09h jusqu'au 23 à 09h UTC


220800Z 2209/2309 05015G27KT 9999 FEW020 BKN040
BECMG 2212/2215 06010KT FEW030
BECMG 2219/2221 05005KT
BECMG 2307/2309 BKN025



MET'MAP, la Météo Aéronautique d'un coup d'oeil ! - Copyright ORBIFLY Décembre 2007 - Disclaimer

ORBIFLY MET'MAP TEAM :

Programmation & Développement : Alexandra Zaïnal
Sur une idée originale de : Baudouin d'Aumeries
Assistance à la programmation : Marc-Olivier Méhu
Soutien technique & logistique : Manuel Goepfert

Contact : metmap@orbifly.com




SOURCES & CREDITS :

   NOAA